createdAt,value
2022-12-11T00:00:09.959Z,-0.3
2022-12-11T00:02:11.843Z,-0.2
2022-12-11T00:04:13.600Z,-0.1
2022-12-11T00:06:15.452Z,-0.1
2022-12-11T00:08:17.340Z,-0.2
2022-12-11T00:10:19.152Z,-0.2
2022-12-11T00:12:20.952Z,-0.2
2022-12-11T00:14:25.980Z,0
2022-12-11T00:16:27.887Z,0.2
2022-12-11T00:18:29.683Z,-0.2
2022-12-11T00:27:07.268Z,0.1
2022-12-11T00:35:14.611Z,0.1
2022-12-11T00:37:16.543Z,0.1
2022-12-11T00:39:18.319Z,0.1
2022-12-11T00:41:23.368Z,0.1
2022-12-11T00:43:25.189Z,-0.3
2022-12-11T00:45:27.026Z,-0.2
2022-12-11T00:47:28.849Z,-0.2
2022-12-11T00:49:30.692Z,0
2022-12-11T00:53:34.320Z,0.2
2022-12-11T00:57:41.238Z,0
2022-12-11T00:59:43.109Z,0.4
2022-12-11T01:01:45.060Z,-0.1
2022-12-11T01:03:46.749Z,0.1
2022-12-11T01:05:48.629Z,-0.3
2022-12-11T01:07:50.532Z,0.1
2022-12-11T01:09:55.533Z,0.1
2022-12-11T01:11:57.369Z,0.2
2022-12-11T01:13:59.205Z,0.3
2022-12-11T01:15:01.724Z,0
2022-12-11T01:17:03.705Z,0.1
2022-12-11T01:19:05.423Z,0.4
2022-12-11T01:21:07.257Z,0
2022-12-11T01:23:13.837Z,0.3
2022-12-11T01:25:15.707Z,0.2
2022-12-11T01:27:17.571Z,0.1
2022-12-11T01:29:19.398Z,0.3
2022-12-11T01:31:21.337Z,0.1
2022-12-11T01:35:24.940Z,0.1
2022-12-11T01:37:29.976Z,0.2
2022-12-11T01:39:31.825Z,-0.1
2022-12-11T01:41:33.668Z,0
2022-12-11T01:43:35.510Z,0.2
2022-12-11T01:51:46.074Z,0.4
2022-12-11T01:53:47.916Z,0.1
2022-12-11T01:55:49.755Z,0.3
2022-12-11T02:01:55.305Z,-0.1
2022-12-11T02:03:57.152Z,0.3
2022-12-11T02:08:04.142Z,0.1
2022-12-11T02:10:05.898Z,0.3
2022-12-11T02:11:08.385Z,0.7
2022-12-11T02:13:10.258Z,0.4
2022-12-11T02:15:12.513Z,0.1
2022-12-11T02:17:13.983Z,0.3
2022-12-11T02:19:19.028Z,-0.1
2022-12-11T02:21:20.876Z,0
2022-12-11T02:23:22.693Z,0.4
2022-12-11T02:25:24.552Z,0.1
2022-12-11T02:27:26.377Z,0.4
2022-12-11T02:31:30.197Z,0.3
2022-12-11T02:33:35.136Z,0.3
2022-12-11T02:35:36.987Z,0.5
2022-12-11T02:37:38.841Z,0.3
2022-12-11T02:43:44.408Z,0.5
2022-12-11T02:45:46.307Z,0.6
2022-12-11T02:51:55.037Z,0.2
2022-12-11T02:53:56.877Z,0.7
2022-12-11T02:55:58.736Z,0.2
2022-12-11T02:58:00.590Z,0.5
2022-12-11T03:00:02.432Z,0.4
2022-12-11T03:02:07.527Z,0.6
2022-12-11T03:07:13.691Z,0.2
2022-12-11T03:09:15.561Z,0.1
2022-12-11T03:11:17.429Z,0.4
2022-12-11T03:15:24.351Z,0.5
2022-12-11T03:17:26.199Z,0.5
2022-12-11T03:19:28.039Z,0.7
2022-12-11T03:21:29.885Z,0.7
2022-12-11T03:23:31.743Z,0.1
2022-12-11T03:25:33.592Z,0.3
2022-12-11T03:27:35.453Z,0.3
2022-12-11T03:29:40.523Z,0.6
2022-12-11T03:31:42.485Z,0.5
2022-12-11T03:33:44.237Z,0.6
2022-12-11T03:35:46.067Z,0.4
2022-12-11T03:37:47.904Z,0.4
2022-12-11T03:39:49.749Z,0.6
2022-12-11T03:41:51.611Z,0.7
2022-12-11T03:43:56.700Z,0.4
2022-12-11T03:45:58.572Z,0.5
2022-12-11T03:48:00.385Z,0.5
2022-12-11T03:50:02.231Z,0.9
2022-12-11T03:52:04.092Z,0.3
2022-12-11T03:54:05.949Z,0.2
2022-12-11T03:56:07.818Z,0.4
2022-12-11T03:58:12.884Z,0.2
2022-12-11T04:00:14.736Z,0.5
2022-12-11T04:02:16.584Z,0.6
2022-12-11T04:04:45.484Z,0.4
2022-12-11T04:06:47.308Z,0.4
2022-12-11T04:08:49.177Z,0.4
2022-12-11T04:10:54.256Z,0.6
2022-12-11T04:12:56.102Z,0.7
2022-12-11T04:14:57.957Z,0.8
2022-12-11T04:16:59.823Z,0.7
2022-12-11T04:19:01.672Z,0.3
2022-12-11T04:21:03.500Z,0.6
2022-12-11T04:23:05.359Z,0.5
2022-12-11T04:25:10.785Z,0.4
2022-12-11T04:29:14.158Z,0.5
2022-12-11T04:31:16.097Z,0.3
2022-12-11T04:33:17.857Z,0.3
2022-12-11T04:37:21.523Z,0.7
2022-12-11T04:39:26.599Z,0.5
2022-12-11T04:41:28.461Z,0.6
2022-12-11T04:47:34.029Z,0.7
2022-12-11T04:49:35.847Z,0.5
2022-12-11T04:51:37.731Z,0.4
2022-12-11T04:55:44.653Z,0.6
2022-12-11T04:57:46.491Z,0.1
2022-12-11T04:58:49.021Z,0.7
2022-12-11T05:04:54.562Z,0.7
2022-12-11T05:06:59.656Z,0.7
2022-12-11T05:09:01.486Z,0.5
2022-12-11T05:11:03.345Z,0.6
2022-12-11T05:13:05.189Z,0.6
2022-12-11T05:15:07.026Z,0.8
2022-12-11T05:17:08.885Z,0.6
2022-12-11T05:19:10.758Z,0.7
2022-12-11T05:21:15.794Z,0.9
2022-12-11T05:23:17.653Z,0.8
2022-12-11T05:27:21.331Z,0.6
2022-12-11T05:29:23.190Z,0.3
2022-12-11T05:37:33.830Z,0.7
2022-12-11T05:39:35.721Z,0.5
2022-12-11T05:41:37.572Z,0.9
2022-12-11T05:43:39.434Z,0.5
2022-12-11T05:45:41.246Z,0.7
2022-12-11T05:47:43.081Z,0.8
2022-12-11T05:49:48.161Z,1
2022-12-11T05:51:50.001Z,0.8
2022-12-11T05:53:51.846Z,0.8
2022-12-11T05:54:54.357Z,0.7
2022-12-11T05:56:56.197Z,0.7
2022-12-11T05:58:58.063Z,0.6
2022-12-11T06:03:05.161Z,0.8
2022-12-11T06:05:06.895Z,0.9
2022-12-11T06:13:14.307Z,0.5
2022-12-11T06:15:16.158Z,0.9
2022-12-11T06:17:21.254Z,0.7
2022-12-11T06:21:24.958Z,0.7
2022-12-11T06:23:26.820Z,0.9
2022-12-11T06:31:37.516Z,0.9
2022-12-11T06:33:39.324Z,0.8
2022-12-11T06:35:42.520Z,0.8
2022-12-11T06:37:43.058Z,0.8
2022-12-11T06:39:44.881Z,1
2022-12-11T06:41:46.744Z,0.8
2022-12-11T06:47:55.578Z,1
2022-12-11T06:49:57.425Z,0.8
2022-12-11T06:57:05.559Z,0.9
2022-12-11T07:03:14.337Z,0.9
2022-12-11T07:05:16.240Z,1.1
2022-12-11T07:07:18.064Z,0.9
2022-12-11T07:09:19.927Z,0.9
2022-12-11T07:11:21.757Z,1
2022-12-11T07:13:28.417Z,0.9
2022-12-11T07:15:30.240Z,0.8
2022-12-11T07:19:33.944Z,1.1
2022-12-11T07:21:35.806Z,1
2022-12-11T07:23:37.645Z,0.8
2022-12-11T07:27:44.619Z,0.7
2022-12-11T07:29:46.486Z,1.2
2022-12-11T07:31:48.358Z,1
2022-12-11T07:33:50.156Z,0.9
2022-12-11T07:35:52.041Z,1
2022-12-11T07:37:53.911Z,1.3
2022-12-11T07:39:55.744Z,0.9
2022-12-11T07:42:00.796Z,0.6
2022-12-11T07:44:02.657Z,0.8
2022-12-11T07:46:04.630Z,0.9
2022-12-11T07:48:33.370Z,0.6
2022-12-11T07:50:39.637Z,1
2022-12-11T07:52:37.093Z,0.8
2022-12-11T07:54:42.173Z,1
2022-12-11T07:56:44.114Z,0.9
2022-12-11T07:58:45.908Z,0.9
2022-12-11T08:00:47.816Z,0.9
2022-12-11T08:02:49.687Z,1
2022-12-11T08:04:51.516Z,0.8
2022-12-11T08:06:53.345Z,0.8
2022-12-11T08:08:58.415Z,1
2022-12-11T08:11:00.272Z,1
2022-12-11T08:13:02.144Z,0.8
2022-12-11T08:15:04.036Z,0.9
2022-12-11T08:19:07.716Z,0.9
2022-12-11T08:21:09.584Z,0.9
2022-12-11T08:27:18.381Z,0.8
2022-12-11T08:29:20.202Z,1.1
2022-12-11T08:31:22.157Z,1
2022-12-11T08:33:23.944Z,1
2022-12-11T08:37:30.833Z,0.9
2022-12-11T08:39:32.684Z,0.9
2022-12-11T08:41:34.556Z,0.9
2022-12-11T08:42:37.110Z,0.8
2022-12-11T08:44:38.959Z,0.8
2022-12-11T08:46:40.774Z,0.9
2022-12-11T08:48:42.641Z,0.8
2022-12-11T08:50:47.746Z,0.7
2022-12-11T08:52:49.609Z,0.4
2022-12-11T08:54:51.476Z,0.6
2022-12-11T08:56:57.791Z,0.5
2022-12-11T08:58:55.158Z,0.8
2022-12-11T09:02:58.940Z,0.9
2022-12-11T09:05:03.991Z,0.7
2022-12-11T09:07:05.826Z,0.7
2022-12-11T09:09:07.686Z,0.9
2022-12-11T09:11:09.529Z,0.6
2022-12-11T09:15:13.458Z,0.5
2022-12-11T09:17:15.095Z,0.9
2022-12-11T09:19:20.196Z,0.6
2022-12-11T09:21:22.074Z,0.8
2022-12-11T09:23:23.949Z,0.6
2022-12-11T09:25:25.792Z,0.7
2022-12-11T09:27:27.645Z,0.6
2022-12-11T09:29:29.482Z,0.8
2022-12-11T09:31:31.340Z,0.9
2022-12-11T09:33:36.436Z,0.8
2022-12-11T09:35:38.289Z,0.7
2022-12-11T09:37:40.138Z,0.8
2022-12-11T09:42:46.397Z,0.7
2022-12-11T09:44:48.232Z,0.6
2022-12-11T09:46:53.349Z,0.6
2022-12-11T09:48:55.231Z,0.6
2022-12-11T09:50:57.096Z,0.7
2022-12-11T09:52:58.951Z,0.7
2022-12-11T09:55:00.807Z,0.4
2022-12-11T09:57:02.683Z,0.7
2022-12-11T09:59:04.544Z,0.7
2022-12-11T10:01:09.651Z,0.6
2022-12-11T10:03:11.501Z,0.5
2022-12-11T10:05:13.641Z,0.7
2022-12-11T10:13:20.717Z,0.6
2022-12-11T10:17:27.640Z,0.7
2022-12-11T10:19:29.499Z,0.6
2022-12-11T10:21:31.376Z,0.6
2022-12-11T10:23:33.183Z,0.7
2022-12-11T10:27:36.941Z,1.1
2022-12-11T10:29:41.989Z,0.6
2022-12-11T10:31:43.841Z,0.9
2022-12-11T10:33:45.678Z,0.9
2022-12-11T10:34:48.227Z,0.6
2022-12-11T10:36:50.104Z,0.9
2022-12-11T10:38:51.990Z,0.9
2022-12-11T10:40:53.840Z,1
2022-12-11T10:42:58.901Z,1
2022-12-11T10:45:00.756Z,0.9
2022-12-11T10:47:02.640Z,0.9
2022-12-11T10:51:06.344Z,0.8
2022-12-11T10:53:08.199Z,1
2022-12-11T10:55:10.323Z,0.8
2022-12-11T10:57:15.146Z,0.9
2022-12-11T10:59:21.185Z,0.7
2022-12-11T11:01:18.975Z,0.9
2022-12-11T11:03:20.739Z,0.9
2022-12-11T11:07:24.483Z,1
2022-12-11T11:09:26.353Z,0.9
2022-12-11T11:11:31.419Z,0.8
2022-12-11T11:13:33.267Z,1.2
2022-12-11T11:15:35.154Z,1
2022-12-11T11:17:43.761Z,1.2
2022-12-11T11:19:38.869Z,1.1
2022-12-11T11:21:40.738Z,1.2
2022-12-11T11:23:45.464Z,1.2
2022-12-11T11:25:47.696Z,1.1
2022-12-11T11:27:49.541Z,1.2
2022-12-11T11:29:53.262Z,1
2022-12-11T11:32:20.298Z,0.9
2022-12-11T11:34:22.177Z,1
2022-12-11T11:36:24.027Z,1.2
2022-12-11T11:38:29.122Z,1.4
2022-12-11T11:42:32.846Z,1.2
2022-12-11T11:44:34.763Z,1.2
2022-12-11T11:46:36.722Z,1.2
2022-12-11T11:50:40.357Z,1.2
2022-12-11T11:52:45.439Z,1.2
2022-12-11T11:54:47.308Z,1.5
2022-12-11T11:56:49.179Z,1.2
2022-12-11T11:58:51.071Z,1.2
2022-12-11T12:00:52.953Z,1.4
2022-12-11T12:04:56.711Z,1.2
2022-12-11T12:07:01.797Z,1.1
2022-12-11T12:09:03.674Z,1.3
2022-12-11T12:11:05.544Z,1.4
2022-12-11T12:13:23.879Z,1.4
2022-12-11T12:15:09.558Z,1.3
2022-12-11T12:17:11.207Z,1.4
2022-12-11T12:19:13.024Z,1.2
2022-12-11T12:21:18.119Z,1.2
2022-12-11T12:23:20.024Z,1.3
2022-12-11T12:25:21.833Z,1.4
2022-12-11T12:26:24.388Z,1.4
2022-12-11T12:28:26.253Z,1.1
2022-12-11T12:30:28.104Z,0.9
2022-12-11T12:32:30.022Z,1.1
2022-12-11T12:34:35.126Z,1.3
2022-12-11T12:38:38.973Z,1.1
2022-12-11T12:40:40.748Z,1.1
2022-12-11T12:42:42.524Z,1.2
2022-12-11T12:44:44.414Z,1.1
2022-12-11T12:46:46.270Z,1
2022-12-11T12:48:51.396Z,1.3
2022-12-11T12:50:53.255Z,0.3
2022-12-11T12:52:55.154Z,1.2
2022-12-11T12:56:58.835Z,1.1
2022-12-11T13:03:07.640Z,1
2022-12-11T13:05:11.207Z,1.4
2022-12-11T13:21:29.229Z,0.8
2022-12-11T13:22:31.775Z,0.8
2022-12-11T13:24:33.616Z,1.1
2022-12-11T13:26:35.493Z,0.9
2022-12-11T13:28:37.343Z,1.3
2022-12-11T13:30:42.452Z,1.1
2022-12-11T13:32:44.288Z,0.9
2022-12-11T13:34:46.140Z,1.2
2022-12-11T13:36:48.017Z,1.1
2022-12-11T13:38:49.905Z,1.5
2022-12-11T13:40:51.767Z,1.2
2022-12-11T13:44:58.716Z,1.5
2022-12-11T13:47:00.584Z,1
2022-12-11T13:49:02.532Z,1.4
2022-12-11T13:51:04.319Z,1.2
2022-12-11T13:53:06.211Z,0.8
2022-12-11T13:55:08.152Z,1.3
2022-12-11T13:57:09.932Z,1.1
2022-12-11T13:59:15.024Z,1.1
2022-12-11T14:01:16.939Z,1.1
2022-12-11T14:03:18.782Z,1.3
2022-12-11T14:05:20.609Z,1.1
2022-12-11T14:07:22.477Z,0.9
2022-12-11T14:09:24.367Z,1.2
2022-12-11T14:13:31.287Z,0.9
2022-12-11T14:15:33.190Z,1
2022-12-11T14:17:35.053Z,1.2
2022-12-11T14:18:37.574Z,1.3
2022-12-11T14:20:39.427Z,1
2022-12-11T14:22:41.296Z,1
2022-12-11T14:24:43.168Z,0.7
2022-12-11T14:26:48.269Z,1
2022-12-11T14:28:50.199Z,0.9
2022-12-11T14:30:52.060Z,1
2022-12-11T14:32:53.879Z,1.2
2022-12-11T14:34:55.730Z,1
2022-12-11T14:36:57.621Z,1.1
2022-12-11T14:38:59.499Z,1.1
2022-12-11T14:43:06.455Z,0.7
2022-12-11T14:47:10.175Z,0.6
2022-12-11T14:49:12.026Z,1
2022-12-11T14:55:20.850Z,0.8
2022-12-11T14:57:22.708Z,0.8
2022-12-11T14:59:31.447Z,1
2022-12-11T15:05:31.087Z,0.6
2022-12-11T15:07:32.027Z,1
2022-12-11T15:13:40.843Z,1
2022-12-11T15:16:09.708Z,0.9
2022-12-11T15:34:29.671Z,0.8
2022-12-11T15:42:40.346Z,0.1
2022-12-11T15:44:42.204Z,0.4
2022-12-11T15:50:51.011Z,0.9
2022-12-11T15:52:52.879Z,0.6
2022-12-11T16:03:02.237Z,0.8
2022-12-11T16:05:07.277Z,0.7
2022-12-11T16:07:09.150Z,0.5
2022-12-11T16:09:11.064Z,1
2022-12-11T16:10:13.540Z,0.9
2022-12-11T16:12:15.409Z,0.7
2022-12-11T16:14:17.279Z,0.7
2022-12-11T16:16:19.231Z,1.1
2022-12-11T16:18:24.257Z,0.5
2022-12-11T16:22:28.010Z,0.8
2022-12-11T16:24:29.878Z,1
2022-12-11T16:26:31.722Z,0.9
2022-12-11T16:28:33.575Z,0.8
2022-12-11T16:30:35.560Z,0.8
2022-12-11T16:32:40.579Z,1
2022-12-11T16:34:42.432Z,0.7
2022-12-11T16:36:44.303Z,0.6
2022-12-11T16:38:51.431Z,0.5
2022-12-11T16:40:48.049Z,0.8
2022-12-11T16:42:49.937Z,0.7
2022-12-11T16:44:51.801Z,0.7
2022-12-11T16:46:56.865Z,0.8
2022-12-11T16:48:58.746Z,0.7
2022-12-11T16:51:00.593Z,0.6
2022-12-11T16:53:02.477Z,0.7
2022-12-11T16:55:04.336Z,0.6
2022-12-11T16:57:06.152Z,0.7
2022-12-11T16:59:08.065Z,0.6
2022-12-11T17:01:13.224Z,1
2022-12-11T17:06:19.437Z,0.5
2022-12-11T17:08:21.336Z,0.7
2022-12-11T17:10:23.151Z,0.2
2022-12-11T17:12:25.028Z,1
2022-12-11T17:14:30.095Z,0.8
2022-12-11T17:16:31.982Z,0.7
2022-12-11T17:24:39.507Z,0.7
2022-12-11T17:26:41.379Z,0.6
2022-12-11T17:28:46.489Z,0.8
2022-12-11T17:30:48.391Z,0.5
2022-12-11T17:32:50.234Z,0.8
2022-12-11T17:34:52.083Z,0.7
2022-12-11T17:36:53.972Z,0.4
2022-12-11T17:38:55.850Z,0.5
2022-12-11T17:43:02.807Z,1.1
2022-12-11T17:45:04.677Z,0.7
2022-12-11T17:47:11.021Z,0.4
2022-12-11T17:49:08.424Z,0.6
2022-12-11T17:51:10.258Z,0.8
2022-12-11T17:53:12.103Z,0.8
2022-12-11T17:55:14.446Z,0.7
2022-12-11T17:57:19.073Z,0.6
2022-12-11T17:59:20.924Z,0.5
2022-12-11T18:01:22.812Z,0.7
2022-12-11T18:02:25.307Z,0.5
2022-12-11T18:04:27.205Z,0.6
2022-12-11T18:06:29.042Z,0.6
2022-12-11T18:08:30.990Z,0.6
2022-12-11T18:14:39.723Z,0.7
2022-12-11T18:16:41.606Z,0.6
2022-12-11T18:18:43.455Z,0.7
2022-12-11T18:20:45.276Z,0.6
2022-12-11T18:22:47.146Z,0.6
2022-12-11T18:24:52.261Z,0.5
2022-12-11T18:26:54.137Z,0.7
2022-12-11T18:32:59.656Z,0.6
2022-12-11T18:35:01.518Z,0.4
2022-12-11T18:37:03.366Z,0.7
2022-12-11T18:39:08.457Z,0.5
2022-12-11T18:41:10.302Z,0.6
2022-12-11T18:43:12.179Z,0.6
2022-12-11T18:45:14.207Z,1.5
2022-12-11T18:51:19.635Z,0.3
2022-12-11T18:53:24.756Z,0.5
2022-12-11T18:57:29.994Z,0.4
2022-12-11T18:59:58.852Z,0.6
2022-12-11T19:02:00.727Z,0.4
2022-12-11T19:04:04.447Z,0.5
2022-12-11T19:08:09.572Z,0.7
2022-12-11T19:10:11.368Z,0.3
2022-12-11T19:12:13.231Z,0.7
2022-12-11T19:14:15.103Z,0.5
2022-12-11T19:16:16.991Z,0.3
2022-12-11T19:18:18.782Z,-0.2
2022-12-11T19:24:27.587Z,0
2022-12-11T19:26:29.438Z,0.2
2022-12-11T19:28:31.295Z,0.4
2022-12-11T19:30:33.149Z,0.2
2022-12-11T19:32:36.496Z,0.5
2022-12-11T19:34:40.092Z,0.7
2022-12-11T19:36:41.918Z,0.5
2022-12-11T19:38:43.779Z,0.3
2022-12-11T19:40:45.633Z,0.5
2022-12-11T19:42:47.513Z,0.3
2022-12-11T19:44:49.382Z,0.3
2022-12-11T19:46:51.339Z,0.4
2022-12-11T19:48:56.324Z,0.5
2022-12-11T19:50:58.164Z,0.5
2022-12-11T19:53:00.052Z,0.4
2022-12-11T19:54:02.569Z,0.1
2022-12-11T19:58:06.266Z,0.4
2022-12-11T20:00:08.173Z,0.6
2022-12-11T20:02:13.348Z,1
2022-12-11T20:04:15.081Z,0.4
2022-12-11T20:06:16.911Z,0.3
2022-12-11T20:08:43.671Z,0.4
2022-12-11T20:10:20.655Z,0.5
2022-12-11T20:12:22.531Z,0.3
2022-12-11T20:14:24.349Z,0.4
2022-12-11T20:17:01.717Z,0.4
2022-12-11T20:18:31.302Z,0.5
2022-12-11T20:20:33.178Z,0.5
2022-12-11T20:22:35.045Z,0.4
2022-12-11T20:24:36.865Z,0.5
2022-12-11T20:26:38.858Z,0.6
2022-12-11T20:32:47.502Z,0.4
2022-12-11T20:34:49.393Z,0.5
2022-12-11T20:36:51.234Z,0.4
2022-12-11T20:38:53.099Z,0.5
2022-12-11T20:42:56.761Z,0.4
2022-12-11T20:45:01.874Z,0.3
2022-12-11T20:47:03.727Z,0.6
2022-12-11T20:49:05.579Z,0.4
2022-12-11T20:50:08.139Z,0.3
2022-12-11T20:52:09.961Z,0.3
2022-12-11T20:54:11.820Z,0.5
2022-12-11T20:56:13.688Z,0.1
2022-12-11T20:58:18.787Z,0.5
2022-12-11T21:00:20.679Z,0.7
2022-12-11T21:02:22.653Z,0.5
2022-12-11T21:06:26.246Z,0.6
2022-12-11T21:08:28.166Z,0.6
2022-12-11T21:12:35.013Z,0.2
2022-12-11T21:14:36.902Z,0.3
2022-12-11T21:16:38.819Z,0.5
2022-12-11T21:22:44.304Z,0.3
2022-12-11T21:26:51.244Z,0.4
2022-12-11T21:28:53.128Z,0.3
2022-12-11T21:30:54.983Z,0.7
2022-12-11T21:32:56.824Z,0.5
2022-12-11T21:34:58.705Z,0.2
2022-12-11T21:37:00.545Z,0.1
2022-12-11T21:39:02.373Z,0.4
2022-12-11T21:41:07.464Z,0
2022-12-11T21:43:09.347Z,0.4
2022-12-11T21:46:13.814Z,0.2
2022-12-11T21:50:17.423Z,0.3
2022-12-11T21:52:19.288Z,0.2
2022-12-11T21:54:24.394Z,0.2
2022-12-11T21:56:26.273Z,0.3
2022-12-11T21:58:28.102Z,0.4
2022-12-11T22:00:29.956Z,0.6
2022-12-11T22:02:34.003Z,0.3
2022-12-11T22:04:33.706Z,0.4
2022-12-11T22:06:35.561Z,0.5
2022-12-11T22:08:40.716Z,0.3
2022-12-11T22:10:43.419Z,0.2
2022-12-11T22:12:45.248Z,0.3
2022-12-11T22:14:47.104Z,0.3
2022-12-11T22:16:49.064Z,0.4
2022-12-11T22:18:50.795Z,0.4
2022-12-11T22:20:52.660Z,0.4
2022-12-11T22:22:57.758Z,0.2
2022-12-11T22:24:59.600Z,0.4
2022-12-11T22:27:01.448Z,0.3
2022-12-11T22:29:03.310Z,0.2
2022-12-11T22:33:07.014Z,0.4
2022-12-11T22:35:08.952Z,0.4
2022-12-11T22:41:22.179Z,0.1
2022-12-11T22:45:48.538Z,0.6
2022-12-11T22:49:55.354Z,0.4
2022-12-11T22:51:57.208Z,0.4
2022-12-11T22:53:59.074Z,0.7
2022-12-11T22:56:00.912Z,0.3
2022-12-11T23:10:17.114Z,0.5
2022-12-11T23:12:18.983Z,0.5
2022-12-11T23:14:20.798Z,0.7
2022-12-11T23:16:22.712Z,0.6
2022-12-11T23:18:27.786Z,0.4
2022-12-11T23:20:29.648Z,0.4
2022-12-11T23:22:31.483Z,0.3
2022-12-11T23:24:33.341Z,0.3
2022-12-11T23:28:37.088Z,0.1
2022-12-11T23:30:39.003Z,0.5
2022-12-11T23:32:44.029Z,0.4
2022-12-11T23:34:45.893Z,0.3
2022-12-11T23:36:47.708Z,0.3
2022-12-11T23:37:50.290Z,0.5
2022-12-11T23:39:52.127Z,0.4
2022-12-11T23:41:53.975Z,0.5
2022-12-11T23:43:55.831Z,0.4
2022-12-11T23:46:00.941Z,0.6
2022-12-11T23:48:02.775Z,0.3
2022-12-11T23:50:04.622Z,0.3
2022-12-11T23:52:06.478Z,0.4
2022-12-11T23:54:08.326Z,0.5
2022-12-11T23:56:10.169Z,0.4
2022-12-11T23:58:12.045Z,0.1
